Bala, Canada
Current Conditions -  °F | °C
As of 11:00 PM on Friday 19 Dec 2014 (Local Time) from CYQA Reporting Station
Clear Clear  
Wind Chill:   Ceiling: Unl
Heat Index:   Visibility: 9mi
Dew Point:   Wind: 2mph
Humidity: 100%   Direction: 250°WSW
Pressure: 30.25"   Gusts: NA
Location:  45.02°N, 79.61°W
Report Text: CYQA 200400Z AUTO 25002KT 9SM CLR M13/M13 A3025 RMK SLP267
Loading
Personal Weather Stations






























Interactive Weather Map New forecast layout! Learn more

10-Day Weather Forecast

Advertisements
Track Severe Weather on mobile